Search for airport 
image banner adimage banner adimage banner ad
image banner ad

10NV - Sunrise Mountain View Hospital

Located in Las Vegas, United States

ICAO - 10NV, IATA -

Data provided by Airmate  

General information

Coordinates: N36°12'52" W115°14'55"
Elevation is 2328 feet MSL.
 
View others Airports in Nevada

Operational data

Special qualification required
Current time UTC:
Current local time:
Weather at : KVGT - North Las Vegas ( 5 km )
METAR: KVGT 292053Z VRB03KT 10SM CLR 41/11 A2987 RMK AO2 SLP096 6//// T04060106 58025 PNO
TAF: KVGT 291727Z 2918/3018 08007KT P6SM SCT150 FM292200 12007KT P6SM VCTS SCT120CB FM300200 17010KT P6SM VCTS SCT080CB BKN150 TEMPO 3004/3008 VRB15G25KT TSRA BKN080CB FM300900 34007KT P6SM SCT080 BKN120
View NOTAMs / SUP AIP / TFR affecting this airport [VIEW]
Communications frequencies: [VIEW]

Runways:

Airport contact information

Address: Las Vegas United States

Satellite view of 10NV